createdAt,value
2022-07-25T00:01:22.754Z,23.10
2022-07-25T00:03:53.128Z,23.10
2022-07-25T00:06:24.809Z,23.00
2022-07-25T00:08:52.907Z,23.00
2022-07-25T00:11:21.134Z,23.00
2022-07-25T00:13:49.490Z,22.90
2022-07-25T00:16:17.914Z,22.90
2022-07-25T00:18:46.111Z,22.90
2022-07-25T00:21:15.664Z,22.90
2022-07-25T00:23:43.929Z,22.80
2022-07-25T00:26:12.060Z,22.80
2022-07-25T00:28:40.227Z,22.80
2022-07-25T00:31:08.582Z,22.80
2022-07-25T00:33:37.033Z,22.70
2022-07-25T00:36:05.691Z,22.70
2022-07-25T00:38:35.283Z,22.70
2022-07-25T00:41:05.101Z,22.60
2022-07-25T00:43:33.602Z,22.60
2022-07-25T00:46:02.175Z,22.60
2022-07-25T00:48:32.522Z,22.50
2022-07-25T00:51:01.287Z,22.50
2022-07-25T00:53:30.179Z,22.50
2022-07-25T00:56:00.240Z,22.40
2022-07-25T00:58:28.432Z,22.40
2022-07-25T01:00:56.779Z,22.40
2022-07-25T01:03:25.015Z,22.30
2022-07-25T01:05:53.897Z,22.30
2022-07-25T01:08:23.255Z,22.20
2022-07-25T01:10:51.745Z,22.20
2022-07-25T01:13:21.300Z,22.20
2022-07-25T01:15:49.526Z,22.20
2022-07-25T01:18:18.103Z,22.10
2022-07-25T01:20:47.819Z,22.10
2022-07-25T01:23:16.028Z,22.10
2022-07-25T01:25:44.286Z,22.00
2022-07-25T01:28:13.035Z,22.00
2022-07-25T01:30:41.479Z,22.00
2022-07-25T01:33:09.675Z,21.90
2022-07-25T01:35:43.286Z,21.90
2022-07-25T01:38:13.654Z,21.90
2022-07-25T01:40:42.723Z,21.80
2022-07-25T01:43:11.642Z,21.80
2022-07-25T01:45:39.918Z,21.80
2022-07-25T01:48:09.005Z,21.70
2022-07-25T01:50:37.114Z,21.70
2022-07-25T01:53:05.897Z,21.70
2022-07-25T01:55:35.366Z,21.70
2022-07-25T01:58:04.732Z,21.60
2022-07-25T02:00:35.005Z,21.60
2022-07-25T02:03:20.530Z,21.60
2022-07-25T02:05:48.780Z,21.50
2022-07-25T02:08:17.124Z,21.50
2022-07-25T02:10:46.919Z,21.50
2022-07-25T02:13:15.060Z,21.50
2022-07-25T02:15:43.295Z,21.50
2022-07-25T02:18:11.451Z,21.40
2022-07-25T02:20:39.591Z,21.40
2022-07-25T02:23:07.801Z,21.40
2022-07-25T02:25:37.008Z,21.40
2022-07-25T02:28:06.785Z,21.30
2022-07-25T02:30:34.985Z,21.30
2022-07-25T02:33:03.301Z,21.30
2022-07-25T02:35:31.570Z,21.20
2022-07-25T02:37:59.661Z,21.20
2022-07-25T02:40:28.004Z,21.20
2022-07-25T02:42:56.119Z,21.20
2022-07-25T02:45:25.675Z,21.10
2022-07-25T02:47:54.008Z,21.10
2022-07-25T02:50:22.125Z,21.10
2022-07-25T02:52:50.379Z,21.10
2022-07-25T02:55:18.498Z,21.10
2022-07-25T02:57:46.597Z,21.00
2022-07-25T03:00:16.531Z,21.00
2022-07-25T03:02:46.132Z,21.00
2022-07-25T03:05:17.514Z,21.00
2022-07-25T03:07:47.039Z,21.00
2022-07-25T03:10:16.362Z,20.90
2022-07-25T03:12:45.254Z,20.90
2022-07-25T03:15:14.261Z,20.90
2022-07-25T03:17:43.169Z,20.90
2022-07-25T03:20:13.114Z,20.80
2022-07-25T03:22:42.192Z,20.80
2022-07-25T03:25:15.580Z,20.80
2022-07-25T03:27:50.734Z,20.80
2022-07-25T03:30:18.873Z,20.80
2022-07-25T03:32:47.795Z,20.80
2022-07-25T03:35:17.311Z,20.70
2022-07-25T03:37:45.637Z,20.70
2022-07-25T03:40:14.514Z,20.70
2022-07-25T03:42:44.063Z,20.70
2022-07-25T03:45:12.520Z,20.70
2022-07-25T03:47:40.634Z,20.70
2022-07-25T03:50:09.268Z,20.70
2022-07-25T03:52:39.130Z,20.60
2022-07-25T03:55:08.752Z,20.60
2022-07-25T03:57:38.298Z,20.60
2022-07-25T04:00:09.457Z,20.60
2022-07-25T04:02:38.604Z,20.60
2022-07-25T04:05:07.883Z,20.60
2022-07-25T04:07:36.528Z,20.60
2022-07-25T04:10:07.691Z,20.60
2022-07-25T04:12:35.887Z,20.60
2022-07-25T04:15:04.683Z,20.60
2022-07-25T04:17:32.776Z,20.60
2022-07-25T04:20:00.955Z,20.60
2022-07-25T04:22:29.205Z,20.60
2022-07-25T04:24:57.452Z,20.60
2022-07-25T04:27:27.087Z,20.70
2022-07-25T04:29:55.289Z,20.70
2022-07-25T04:32:23.759Z,20.70
2022-07-25T04:34:52.575Z,20.70
2022-07-25T04:37:20.700Z,20.70
2022-07-25T04:39:48.855Z,20.70
2022-07-25T04:42:17.011Z,20.80
2022-07-25T04:44:46.557Z,20.80
2022-07-25T04:47:14.929Z,20.80
2022-07-25T04:49:43.049Z,20.80
2022-07-25T04:52:11.263Z,20.90
2022-07-25T04:54:39.415Z,20.90
2022-07-25T04:57:07.748Z,20.90
2022-07-25T04:59:35.930Z,21.00
2022-07-25T05:02:05.636Z,21.10
2022-07-25T05:04:33.784Z,21.00
2022-07-25T05:07:03.538Z,21.10
2022-07-25T05:09:31.764Z,21.10
2022-07-25T05:12:00.239Z,21.10
2022-07-25T05:14:28.517Z,21.20
2022-07-25T05:16:56.869Z,21.20
2022-07-25T05:19:26.512Z,21.30
2022-07-25T05:21:54.644Z,21.30
2022-07-25T05:24:23.453Z,21.30
2022-07-25T05:26:51.899Z,21.40
2022-07-25T05:29:20.111Z,21.40
2022-07-25T05:31:48.329Z,21.40
2022-07-25T05:34:16.467Z,21.50
2022-07-25T05:36:47.401Z,21.50
2022-07-25T05:39:15.961Z,21.60
2022-07-25T05:41:44.159Z,21.70
2022-07-25T05:44:12.424Z,21.70
2022-07-25T05:46:40.595Z,21.80
2022-07-25T05:49:08.852Z,21.80
2022-07-25T05:51:37.154Z,21.90
2022-07-25T05:54:07.241Z,22.00
2022-07-25T05:56:35.746Z,22.20
2022-07-25T05:59:03.865Z,22.40
2022-07-25T06:01:32.308Z,22.60
2022-07-25T06:04:00.436Z,22.80
2022-07-25T06:06:30.620Z,23.00
2022-07-25T06:08:58.749Z,23.20
2022-07-25T06:11:31.008Z,23.30
2022-07-25T06:13:59.666Z,23.50
2022-07-25T06:16:28.497Z,23.80
2022-07-25T06:18:56.756Z,24.00
2022-07-25T06:21:24.894Z,24.20
2022-07-25T06:23:53.215Z,24.40
2022-07-25T06:26:21.351Z,24.70
2022-07-25T06:28:51.203Z,24.90
2022-07-25T06:31:19.713Z,25.10
2022-07-25T06:33:47.834Z,25.40
2022-07-25T06:36:16.179Z,25.50
2022-07-25T06:38:44.533Z,25.70
2022-07-25T06:41:16.261Z,25.90
2022-07-25T06:43:44.420Z,26.10
2022-07-25T06:46:13.968Z,26.10
2022-07-25T06:48:42.170Z,26.20
2022-07-25T06:51:10.537Z,26.30
2022-07-25T06:53:38.695Z,26.40
2022-07-25T06:56:07.537Z,26.60
2022-07-25T06:58:35.705Z,26.90
2022-07-25T07:01:04.339Z,27.10
2022-07-25T07:03:38.279Z,27.30
2022-07-25T07:06:07.022Z,27.50
2022-07-25T07:08:35.445Z,27.60
2022-07-25T07:11:03.699Z,27.80
2022-07-25T07:13:31.909Z,27.80
2022-07-25T07:16:00.123Z,27.80
2022-07-25T07:18:28.470Z,27.80
2022-07-25T07:20:57.975Z,27.70
2022-07-25T07:23:26.195Z,27.60
2022-07-25T07:25:57.303Z,27.50
2022-07-25T07:28:25.794Z,27.50
2022-07-25T07:33:42.293Z,27.40
2022-07-25T07:36:12.700Z,27.40
2022-07-25T07:38:41.565Z,27.30
2022-07-25T07:41:09.984Z,27.30
2022-07-25T07:43:38.313Z,27.30
2022-07-25T07:46:06.775Z,27.30
2022-07-25T07:48:35.297Z,27.40
2022-07-25T07:51:04.243Z,27.40
2022-07-25T07:53:51.456Z,27.40
2022-07-25T07:56:20.064Z,27.50
2022-07-25T07:58:48.259Z,27.50
2022-07-25T08:01:16.664Z,27.60
2022-07-25T08:03:44.945Z,27.60
2022-07-25T08:06:13.209Z,27.60
2022-07-25T08:08:42.729Z,27.70
2022-07-25T08:11:10.986Z,27.80
2022-07-25T08:13:39.195Z,27.80
2022-07-25T08:16:07.737Z,28.00
2022-07-25T08:18:35.933Z,28.00
2022-07-25T08:21:06.302Z,28.10
2022-07-25T08:23:35.722Z,28.30
2022-07-25T08:26:05.695Z,28.40
2022-07-25T08:28:34.028Z,28.60
2022-07-25T08:31:02.174Z,28.80
2022-07-25T08:33:30.367Z,29.00
2022-07-25T08:35:59.639Z,29.10
2022-07-25T08:38:29.657Z,29.10
2022-07-25T08:40:59.727Z,29.10
2022-07-25T08:43:32.979Z,29.20
2022-07-25T08:46:03.226Z,29.20
2022-07-25T08:48:31.664Z,29.20
2022-07-25T08:51:01.295Z,29.30
2022-07-25T08:53:33.272Z,29.20
2022-07-25T08:56:08.025Z,29.30
2022-07-25T08:58:40.356Z,29.30
2022-07-25T09:01:09.102Z,29.40
2022-07-25T09:03:37.521Z,29.50
2022-07-25T09:06:16.109Z,29.60
2022-07-25T09:08:53.424Z,29.70
2022-07-25T09:11:32.251Z,29.80
2022-07-25T09:14:05.522Z,29.80
2022-07-25T09:16:36.423Z,29.90
2022-07-25T09:19:14.281Z,29.90
2022-07-25T09:21:44.377Z,30.00
2022-07-25T09:24:16.985Z,30.10
2022-07-25T09:26:50.105Z,30.10
2022-07-25T09:29:25.793Z,30.10
2022-07-25T09:31:55.469Z,30.10
2022-07-25T09:34:38.052Z,30.20
2022-07-25T09:37:08.320Z,30.30
2022-07-25T09:39:45.452Z,30.40
2022-07-25T09:42:20.730Z,30.40
2022-07-25T09:45:11.243Z,30.60
2022-07-25T09:47:55.664Z,30.70
2022-07-25T09:50:26.437Z,30.80
2022-07-25T09:52:56.937Z,30.90
2022-07-25T09:55:25.447Z,31.00
2022-07-25T09:57:53.649Z,31.00
2022-07-25T10:00:25.498Z,31.10
2022-07-25T10:03:08.374Z,31.20
2022-07-25T10:05:50.730Z,31.30
2022-07-25T10:08:20.900Z,31.30
2022-07-25T10:10:51.057Z,31.30
2022-07-25T10:13:31.827Z,31.30
2022-07-25T10:16:02.910Z,31.30
2022-07-25T10:18:32.949Z,31.30
2022-07-25T10:21:28.713Z,31.30
2022-07-25T10:24:06.046Z,31.30
2022-07-25T10:26:38.641Z,31.30
2022-07-25T10:29:10.869Z,31.30
2022-07-25T10:31:49.902Z,31.30
2022-07-25T10:34:28.995Z,31.30
2022-07-25T10:37:11.965Z,31.30
2022-07-25T10:39:41.135Z,31.40
2022-07-25T10:42:14.583Z,31.40
2022-07-25T10:44:44.677Z,31.50
2022-07-25T10:47:16.884Z,31.40
2022-07-25T10:50:16.402Z,31.50
2022-07-25T10:52:43.108Z,31.60
2022-07-25T10:55:11.626Z,31.60
2022-07-25T10:57:49.954Z,31.60
2022-07-25T11:00:28.745Z,31.60
2022-07-25T11:02:58.980Z,31.60
2022-07-25T11:05:27.362Z,31.60
2022-07-25T11:08:20.083Z,31.60
2022-07-25T11:10:51.998Z,31.70
2022-07-25T11:13:20.297Z,31.60
2022-07-25T11:15:49.125Z,31.60
2022-07-25T11:18:19.227Z,31.60
2022-07-25T11:20:47.526Z,31.60
2022-07-25T11:23:23.124Z,31.60
2022-07-25T11:25:51.839Z,31.70
2022-07-25T11:28:20.004Z,31.80
2022-07-25T11:30:48.321Z,31.90
2022-07-25T11:33:19.342Z,31.80
2022-07-25T11:35:59.510Z,31.80
2022-07-25T11:38:29.334Z,31.80
2022-07-25T11:40:57.583Z,31.70
2022-07-25T11:43:27.159Z,31.60
2022-07-25T11:46:00.668Z,31.60
2022-07-25T11:48:39.002Z,31.60
2022-07-25T11:51:18.643Z,31.60
2022-07-25T11:53:49.790Z,31.60
2022-07-25T11:56:44.290Z,31.50
2022-07-25T11:59:10.121Z,31.60
2022-07-25T12:01:40.921Z,31.70
2022-07-25T12:04:20.065Z,31.70
2022-07-25T12:06:50.229Z,31.80
2022-07-25T12:09:20.191Z,31.80
2022-07-25T12:11:50.034Z,31.90
2022-07-25T12:14:18.507Z,31.90
2022-07-25T12:16:47.009Z,31.90
2022-07-25T12:19:23.667Z,32.00
2022-07-25T12:21:52.105Z,31.90
2022-07-25T12:24:20.511Z,32.00
2022-07-25T12:26:48.903Z,31.90
2022-07-25T12:29:18.090Z,31.90
2022-07-25T12:31:46.241Z,31.80
2022-07-25T12:34:14.468Z,31.80
2022-07-25T12:36:46.138Z,31.80
2022-07-25T12:39:43.784Z,31.70
2022-07-25T12:42:12.024Z,31.70
2022-07-25T12:44:40.378Z,31.60
2022-07-25T12:47:08.957Z,31.70
2022-07-25T12:49:37.486Z,31.80
2022-07-25T13:02:48.031Z,31.70
2022-07-25T13:05:16.747Z,31.60
2022-07-25T13:07:45.598Z,31.40
2022-07-25T13:10:14.106Z,31.40
2022-07-25T13:16:29.611Z,31.20
2022-07-25T13:19:00.580Z,31.10
2022-07-25T13:21:29.566Z,31.00
2022-07-25T13:23:57.741Z,30.80
2022-07-25T13:26:25.978Z,30.70
2022-07-25T13:28:59.408Z,30.60
2022-07-25T13:31:28.358Z,30.50
2022-07-25T13:33:58.612Z,30.40
2022-07-25T13:36:27.638Z,30.30
2022-07-25T13:38:55.906Z,30.20
2022-07-25T13:41:24.262Z,30.10
2022-07-25T13:43:52.576Z,29.90
2022-07-25T13:46:21.057Z,29.80
2022-07-25T13:48:49.332Z,29.60
2022-07-25T13:51:18.984Z,29.40
2022-07-25T13:53:47.194Z,29.20
2022-07-25T13:56:15.465Z,29.00
2022-07-25T13:58:43.655Z,28.80
2022-07-25T14:01:16.185Z,28.60
2022-07-25T14:03:44.408Z,28.40
2022-07-25T14:11:01.788Z,28.10
2022-07-25T14:23:44.426Z,26.80
2022-07-25T14:26:14.279Z,26.50
2022-07-25T14:28:42.635Z,26.30
2022-07-25T14:31:11.476Z,26.10
2022-07-25T14:33:42.074Z,26.00
2022-07-25T14:42:31.307Z,26.10
2022-07-25T14:45:04.150Z,26.10
2022-07-25T14:47:37.487Z,26.00
2022-07-25T14:50:06.329Z,26.10
2022-07-25T14:52:34.574Z,26.10
2022-07-25T14:55:02.799Z,26.20
2022-07-25T14:57:32.383Z,26.30
2022-07-25T15:00:01.919Z,26.30
2022-07-25T15:02:30.241Z,26.40
2022-07-25T15:04:58.506Z,26.40
2022-07-25T15:07:26.772Z,26.30
2022-07-25T15:09:54.854Z,26.30
2022-07-25T15:12:23.006Z,26.20
2022-07-25T15:14:55.441Z,26.20
2022-07-25T15:17:23.679Z,26.10
2022-07-25T15:19:51.863Z,26.10
2022-07-25T15:23:29.742Z,26.10
2022-07-25T15:26:02.232Z,26.10
2022-07-25T15:28:30.845Z,26.00
2022-07-25T15:31:01.059Z,25.90
2022-07-25T15:33:29.423Z,25.90
2022-07-25T15:35:57.575Z,25.80
2022-07-25T15:38:25.793Z,25.70
2022-07-25T15:40:53.958Z,25.70
2022-07-25T15:43:22.158Z,25.60
2022-07-25T15:45:50.440Z,25.60
2022-07-25T15:48:20.092Z,25.60
2022-07-25T15:50:49.327Z,25.60
2022-07-25T15:53:17.533Z,25.60
2022-07-25T15:55:45.857Z,25.60
2022-07-25T15:58:14.110Z,25.60
2022-07-25T16:00:43.025Z,25.60
2022-07-25T16:03:13.760Z,25.50
2022-07-25T16:05:44.947Z,25.50
2022-07-25T16:08:13.063Z,25.50
2022-07-25T16:10:41.789Z,25.50
2022-07-25T16:13:09.884Z,25.50
2022-07-25T16:15:38.044Z,25.50
2022-07-25T16:18:06.580Z,25.50
2022-07-25T16:20:35.386Z,25.50
2022-07-25T16:23:05.201Z,25.50
2022-07-25T16:25:33.305Z,25.50
2022-07-25T16:28:01.582Z,25.50
2022-07-25T16:30:31.356Z,25.50
2022-07-25T16:32:59.623Z,25.50
2022-07-25T16:35:27.722Z,25.50
2022-07-25T16:37:56.019Z,25.40
2022-07-25T16:40:30.204Z,25.30
2022-07-25T16:42:59.751Z,25.20
2022-07-25T16:45:29.211Z,25.10
2022-07-25T16:47:57.535Z,25.10
2022-07-25T16:50:25.684Z,25.00
2022-07-25T16:52:54.898Z,24.90
2022-07-25T16:55:53.213Z,24.70
2022-07-25T16:58:30.229Z,24.50
2022-07-25T17:01:58.184Z,24.40
2022-07-25T17:04:30.587Z,24.30
2022-07-25T17:07:07.524Z,24.20
2022-07-25T17:09:46.106Z,24.30
2022-07-25T17:12:20.234Z,24.20
2022-07-25T17:14:52.344Z,24.20
2022-07-25T17:17:30.561Z,24.20
2022-07-25T17:20:08.829Z,24.20
2022-07-25T17:22:40.962Z,24.20
2022-07-25T17:25:15.292Z,24.20
2022-07-25T17:27:47.347Z,24.40
2022-07-25T17:30:18.683Z,24.60
2022-07-25T17:32:56.029Z,24.80
2022-07-25T17:35:28.651Z,25.10
2022-07-25T17:38:10.021Z,25.20
2022-07-25T17:40:43.031Z,25.40
2022-07-25T17:43:25.143Z,25.80
2022-07-25T17:45:56.168Z,26.10
2022-07-25T17:48:29.332Z,26.20
2022-07-25T17:51:02.106Z,26.30
2022-07-25T17:53:39.211Z,26.30
2022-07-25T17:56:14.095Z,26.30
2022-07-25T17:58:51.785Z,26.20
2022-07-25T18:01:23.562Z,26.10
2022-07-25T18:04:02.417Z,25.90
2022-07-25T18:06:34.363Z,25.70
2022-07-25T18:09:19.041Z,25.60
2022-07-25T18:11:55.151Z,25.40
2022-07-25T18:14:29.555Z,25.30
2022-07-25T18:17:06.585Z,25.30
2022-07-25T18:19:42.595Z,25.20
2022-07-25T18:22:24.047Z,25.20
2022-07-25T18:25:10.634Z,25.20
2022-07-25T18:27:54.304Z,25.20
2022-07-25T18:30:47.376Z,25.20
2022-07-25T18:33:19.605Z,25.20
2022-07-25T18:35:54.395Z,25.10
2022-07-25T18:38:27.822Z,25.10
2022-07-25T18:41:29.055Z,24.90
2022-07-25T18:44:13.035Z,24.90
2022-07-25T18:46:52.086Z,24.70
2022-07-25T18:49:34.571Z,24.70
2022-07-25T18:52:19.699Z,24.60
2022-07-25T18:54:57.799Z,24.50
2022-07-25T18:57:32.982Z,24.40
2022-07-25T19:00:04.927Z,24.30
2022-07-25T19:02:43.219Z,24.20
2022-07-25T19:05:15.687Z,24.10
2022-07-25T19:07:47.514Z,24.00
2022-07-25T19:10:19.305Z,24.00
2022-07-25T19:12:56.580Z,23.90
2022-07-25T19:15:32.168Z,23.80
2022-07-25T19:18:09.858Z,23.70
2022-07-25T19:20:41.852Z,23.60
2022-07-25T19:23:10.718Z,23.50
2022-07-25T19:25:38.940Z,23.40
2022-07-25T19:28:07.299Z,23.30
2022-07-25T19:30:35.413Z,23.30
2022-07-25T19:33:05.021Z,23.20
2022-07-25T19:35:36.142Z,23.20
2022-07-25T19:38:04.460Z,23.10
2022-07-25T19:40:33.843Z,23.00
2022-07-25T19:43:02.831Z,23.00
2022-07-25T19:45:32.580Z,22.90
2022-07-25T19:48:01.058Z,22.90
2022-07-25T19:50:30.602Z,22.80
2022-07-25T19:52:58.842Z,22.80
2022-07-25T19:55:26.981Z,22.70
2022-07-25T19:57:55.123Z,22.70
2022-07-25T20:00:23.676Z,22.60
2022-07-25T20:02:51.969Z,22.60
2022-07-25T20:05:20.265Z,22.60
2022-07-25T20:07:49.721Z,22.50
2022-07-25T20:10:18.169Z,22.40
2022-07-25T20:12:46.377Z,22.40
2022-07-25T20:15:14.580Z,22.40
2022-07-25T20:17:43.404Z,22.30
2022-07-25T20:20:12.152Z,22.30
2022-07-25T20:22:41.981Z,22.20
2022-07-25T20:25:14.365Z,22.20
2022-07-25T20:27:42.534Z,22.20
2022-07-25T20:30:12.186Z,22.10
2022-07-25T20:32:40.325Z,22.10
2022-07-25T20:35:09.343Z,22.10
2022-07-25T20:37:37.494Z,22.10
2022-07-25T20:40:08.694Z,22.00
2022-07-25T20:42:38.805Z,22.00
2022-07-25T20:45:08.030Z,22.00
2022-07-25T20:47:36.152Z,22.00
2022-07-25T20:50:04.493Z,21.90
2022-07-25T20:52:33.572Z,21.90
2022-07-25T20:55:01.724Z,21.90
2022-07-25T20:57:38.233Z,21.80
2022-07-25T21:00:07.298Z,21.80
2022-07-25T21:02:35.485Z,21.80
2022-07-25T21:05:03.693Z,21.70
2022-07-25T21:07:31.830Z,21.70
2022-07-25T21:09:59.958Z,21.70
2022-07-25T21:12:32.445Z,21.70
2022-07-25T21:15:02.342Z,21.60
2022-07-25T21:17:30.672Z,21.60
2022-07-25T21:19:58.789Z,21.60
2022-07-25T21:22:27.372Z,21.60
2022-07-25T21:24:55.457Z,21.50
2022-07-25T21:27:24.254Z,21.50
2022-07-25T21:29:52.369Z,21.50
2022-07-25T21:32:22.086Z,21.50
2022-07-25T21:34:50.332Z,21.50
2022-07-25T21:37:18.511Z,21.50
2022-07-25T21:39:46.574Z,21.50
2022-07-25T21:42:14.675Z,21.50
2022-07-25T21:44:43.868Z,21.50
2022-07-25T21:47:12.477Z,21.40
2022-07-25T21:49:59.494Z,21.40
2022-07-25T21:52:34.480Z,21.40
2022-07-25T21:55:04.191Z,21.40
2022-07-25T21:57:32.375Z,21.40
2022-07-25T22:00:00.752Z,21.40
2022-07-25T22:02:28.850Z,21.30
2022-07-25T22:04:58.331Z,21.30
2022-07-25T22:07:26.661Z,21.30
2022-07-25T22:09:54.897Z,21.30
2022-07-25T22:12:23.082Z,21.30
2022-07-25T22:14:51.188Z,21.30
2022-07-25T22:17:19.456Z,21.20
2022-07-25T22:19:47.546Z,21.20
2022-07-25T22:22:17.161Z,21.20
2022-07-25T22:24:46.712Z,21.20
2022-07-25T22:27:15.009Z,21.20
2022-07-25T22:29:43.262Z,21.20
2022-07-25T22:32:11.449Z,21.20
2022-07-25T22:34:39.625Z,21.20
2022-07-25T22:37:07.736Z,21.20
2022-07-25T22:39:37.260Z,21.10
2022-07-25T22:42:05.676Z,21.10
2022-07-25T22:44:33.795Z,21.10
2022-07-25T22:47:01.896Z,21.10
2022-07-25T22:49:30.039Z,21.10
2022-07-25T22:51:58.232Z,21.10
2022-07-25T22:54:26.384Z,21.10
2022-07-25T22:56:55.969Z,21.10
2022-07-25T22:59:24.085Z,21.10
2022-07-25T23:01:52.232Z,21.00
2022-07-25T23:04:20.335Z,21.00
2022-07-25T23:06:48.585Z,21.00
2022-07-25T23:09:16.666Z,21.00
2022-07-25T23:11:45.043Z,20.90
2022-07-25T23:14:14.662Z,20.90
2022-07-25T23:16:42.910Z,20.90
2022-07-25T23:19:11.256Z,20.90
2022-07-25T23:21:39.395Z,20.90
2022-07-25T23:24:08.040Z,20.90
2022-07-25T23:26:36.135Z,20.90
2022-07-25T23:29:04.576Z,20.80
2022-07-25T23:31:34.293Z,20.80
2022-07-25T23:34:02.454Z,20.70
2022-07-25T23:36:30.595Z,20.70
2022-07-25T23:38:58.775Z,20.70
2022-07-25T23:41:26.906Z,20.70
2022-07-25T23:43:56.993Z,20.70
2022-07-25T23:46:29.290Z,20.60
2022-07-25T23:49:00.471Z,20.60
2022-07-25T23:51:28.678Z,20.60
2022-07-25T23:53:56.968Z,20.60
2022-07-25T23:56:25.274Z,20.50
2022-07-25T23:58:53.511Z,20.50
